Rooma, Italy

4. joulukuuta 2016 klo 04:48 (CET) (GMT +0100)
Via dei Laghi | | Change Station

Kork 492 ft 41.79 °N, 12.61 °E | Updated 3 minutes ago

Mostly Cloudy
Pilvistä
51.1 °F
Tuntuu kuin 51.1 °F
N
0.6
Tuuli Suunnaltaan vaihteleva Tuuli ilmansuunnasta Itä
Gusts 1.2 mph

Tänään
Korkea -- | Matala -- °F
--% Sateen mahd.
Eilen
Korkea -- | Matala -- °F
Precip. -- tuumaa
Ilmanpaine 30.15 tuumaa
Näkyvyys 6.2 mailia
Pilviä Pilvistä 3000 ft
Kastepiste 46 °F
Ilmankosteus 83%
Sademäärä 0.00 tuumaa
Lumensyvyys Ei saatavilla
7:20 AM 4:39 PM
Kasvava sirppi, 19% visible
METAR LIRA 040320Z 01003KT 340V080 9999 BKN030 10/07 Q1021
Ilmanpaine 30.15 tuumaa
Näkyvyys 6.2 mailia
Pilviä Pilvistä 3000 ft
Kastepiste 46 °F
Ilmankosteus 83%
Sademäärä 0.00 tuumaa
Lumensyvyys Ei saatavilla
7:20 AM 4:39 PM
Kasvava sirppi, 19% visible
METAR LIRA 040320Z 01003KT 340V080 9999 BKN030 10/07 Q1021

10-Day Weather Forecast

×

Almanac

Tähtitiede

Dec. 04, 2016 Nousuaika Laskuaika
Valoisa aika
Porvarillinen hämärä
Nauttinen hämärä
Astronominen hämärä
Kuu
Näkyvän valon pituus
Päivän pituus
Tomorrow will be .
, % of the Moon is Illuminated

Tämän päivän ennätykset

Country Highs Country Lows

Community

WunderPhotos

Upload Photos

1,955,573 photos uploaded!

WunderBlog® & News

Nearby

Ilmanlaatu

  Ilmanlaatu AQ Index Pollutant
Not available.

Lumensyvyys

Station Depth Korkeus

Maanjäristysaktiivisuus

Paikkakunta Distance Mag. Time & Date
Minimum magnitude displayed is 2.5.

Coastal Water Temperatures

Paikka Lämpötila

Stations

Lähimmät sääasemat

Aseman sijainti Lämpötila Tuulen hyytävyys Kastepiste Ilmankosteus Tuuli Precip. Kork Päivitetty Tyyppi